Time;durP1;ratioP1;P1;durP2;ratioP2;P2;SDS_P1;SDS_P2;PMS_P1;PMS_P2;Temp;Humidity;BMP_temperature;BMP_pressure;BME280_temperature;BME280_humidity;BME280_pressure;Samples;Min_cycle;Max_cycle;Signal;HPM_P1;HPM_P2
2023/07/14 00:00:29;;;;;;;7.22;3.08;;;;;;;15.98;100.00;94293.50;5063453;28;20061;-69
2023/07/14 00:02:55;;;;;;;4.70;3.55;;;;;;;15.97;100.00;94295.34;5059324;28;20024;-69
2023/07/14 00:05:26;;;;;;;4.43;3.25;;;;;;;15.95;100.00;94297.38;5066326;28;20107;-69
2023/07/14 00:07:52;;;;;;;4.82;3.78;;;;;;;15.88;100.00;94281.47;5065028;28;20035;-69
2023/07/14 00:10:23;;;;;;;3.25;2.40;;;;;;;15.83;100.00;94272.50;5056910;28;20496;-69
2023/07/14 00:12:51;;;;;;;2.65;2.45;;;;;;;15.85;100.00;94267.81;5069267;28;20148;-69
2023/07/14 00:15:17;;;;;;;2.38;2.17;;;;;;;15.82;100.00;94250.44;5061123;28;20417;-69
2023/07/14 00:17:44;;;;;;;5.88;3.05;;;;;;;15.74;100.00;94246.19;5062175;28;20489;-69
2023/07/14 00:20:27;;;;;;;3.33;2.20;;;;;;;15.70;100.00;94218.44;5056985;28;20043;-69
2023/07/14 00:22:57;;;;;;;2.67;2.47;;;;;;;15.71;100.00;94217.44;5065914;28;20029;-69
2023/07/14 00:25:24;;;;;;;3.58;2.97;;;;;;;15.70;100.00;94223.75;5066022;28;20045;-69
2023/07/14 00:27:55;;;;;;;2.40;2.22;;;;;;;15.67;100.00;94200.31;5067749;28;20051;-69
2023/07/14 00:30:23;;;;;;;2.38;2.17;;;;;;;15.68;100.00;94193.97;5063391;28;20040;-69
2023/07/14 00:32:51;;;;;;;4.85;3.90;;;;;;;15.69;100.00;94182.34;5057958;28;20035;-69
2023/07/14 00:35:27;;;;;;;3.08;2.88;;;;;;;15.68;100.00;94185.19;5067924;28;20119;-69
2023/07/14 00:37:54;;;;;;;3.03;2.60;;;;;;;15.62;100.00;94194.81;5067531;28;20036;-69
2023/07/14 00:40:26;;;;;;;3.08;2.88;;;;;;;15.59;100.00;94193.41;5056465;28;20035;-69
2023/07/14 00:42:55;;;;;;;3.40;2.72;;;;;;;15.57;100.00;94184.00;5063963;28;20108;-69
2023/07/14 00:45:23;;;;;;;2.95;2.55;;;;;;;15.52;100.00;94170.56;5070278;28;20060;-69
2023/07/14 00:47:52;;;;;;;2.40;2.20;;;;;;;15.53;100.00;94150.97;5060989;28;20058;-69
2023/07/14 00:50:27;;;;;;;4.03;2.20;;;;;;;15.52;100.00;94136.09;5065111;28;20064;-69
2023/07/14 00:52:53;;;;;;;3.10;2.22;;;;;;;15.51;100.00;94134.47;5068624;28;20036;-69
2023/07/14 00:55:29;;;;;;;4.75;3.05;;;;;;;15.49;100.00;94123.25;5057448;28;20029;-69
2023/07/14 00:57:56;;;;;;;3.50;2.78;;;;;;;15.47;100.00;94123.47;5062157;28;20508;-69
2023/07/14 01:00:30;;;;;;;2.97;2.60;;;;;;;15.49;100.00;94107.34;5063348;28;20060;-69
2023/07/14 01:02:56;;;;;;;2.75;2.50;;;;;;;15.41;100.00;94100.44;5062135;28;20037;-69
2023/07/14 01:05:23;;;;;;;3.53;2.40;;;;;;;15.36;100.00;94090.47;5072953;28;20032;-69
2023/07/14 01:07:49;;;;;;;2.00;1.90;;;;;;;15.34;100.00;94073.94;5065582;28;20028;-70
2023/07/14 01:10:18;;;;;;;2.97;2.10;;;;;;;15.36;100.00;94068.44;5065259;28;20043;-69
2023/07/14 01:13:06;;;;;;;2.10;2.00;;;;;;;15.33;100.00;94067.03;5062267;28;20047;-69
2023/07/14 01:15:31;;;;;;;2.33;2.17;;;;;;;15.35;100.00;94061.53;5065733;28;20021;-69
2023/07/14 01:17:57;;;;;;;2.17;1.98;;;;;;;15.30;100.00;94068.28;5075403;28;20077;-69
2023/07/14 01:20:23;;;;;;;3.58;2.40;;;;;;;15.27;100.00;94055.44;5072271;28;20025;-69
2023/07/14 01:23:07;;;;;;;4.40;2.13;;;;;;;15.27;100.00;94046.66;5071691;28;20112;-68
2023/07/14 01:25:35;;;;;;;2.60;2.40;;;;;;;15.26;100.00;94051.16;5070213;28;20068;-68
2023/07/14 01:28:03;;;;;;;2.30;2.10;;;;;;;15.24;100.00;94069.09;5073159;28;20560;-69
2023/07/14 01:30:29;;;;;;;2.03;1.92;;;;;;;15.25;100.00;94033.66;5071631;28;20048;-69
2023/07/14 01:32:55;;;;;;;3.28;2.10;;;;;;;15.23;100.00;94018.97;5073732;28;20260;-69
2023/07/14 01:35:28;;;;;;;2.47;2.10;;;;;;;15.20;100.00;94014.09;5070874;28;20024;-69
2023/07/14 01:37:54;;;;;;;1.90;1.80;;;;;;;15.20;100.00;94008.78;5066083;28;20059;-69
2023/07/14 01:40:21;;;;;;;2.63;2.42;;;;;;;15.21;100.00;94005.09;5068658;28;20044;-69
2023/07/14 01:43:06;;;;;;;2.47;2.28;;;;;;;15.09;100.00;94002.31;5069699;28;20028;-69
2023/07/14 01:45:57;;;;;;;2.35;2.15;;;;;;;15.00;100.00;93978.69;5067687;28;20463;-69
2023/07/14 01:48:31;;;;;;;3.10;2.17;;;;;;;14.97;100.00;93978.31;5084308;28;20028;-69
2023/07/14 01:51:01;;;;;;;3.42;2.00;;;;;;;14.93;100.00;93959.38;5070238;28;20166;-69
2023/07/14 01:53:31;;;;;;;2.00;1.80;;;;;;;14.94;100.00;93955.69;5062700;28;20029;-69
2023/07/14 01:56:02;;;;;;;2.38;2.08;;;;;;;14.95;100.00;93975.06;5060681;28;20017;-69
2023/07/14 01:58:32;;;;;;;2.47;2.28;;;;;;;14.95;100.00;93952.03;5066979;28;20025;-69
2023/07/14 02:00:58;;;;;;;4.75;2.15;;;;;;;14.99;100.00;93945.28;5067018;28;20031;-69
2023/07/14 02:03:39;;;;;;;2.38;2.08;;;;;;;14.98;100.00;93942.84;5064488;28;20016;-69
2023/07/14 02:06:04;;;;;;;3.38;2.38;;;;;;;14.95;100.00;93953.88;5071532;28;20167;-69
2023/07/14 02:08:30;;;;;;;2.67;2.47;;;;;;;14.91;100.00;93969.38;5056761;28;20060;-69
2023/07/14 02:10:55;;;;;;;3.20;2.30;;;;;;;14.88;100.00;93978.53;5069891;28;20033;-69
2023/07/14 02:13:23;;;;;;;2.42;2.20;;;;;;;14.88;100.00;93991.00;5069884;28;20020;-69
2023/07/14 02:15:50;;;;;;;2.28;2.10;;;;;;;14.81;100.00;94021.97;5074460;28;20027;-69
2023/07/14 02:18:20;;;;;;;2.40;2.20;;;;;;;14.72;100.00;93987.00;5062460;28;20453;-69
2023/07/14 02:20:47;;;;;;;5.95;2.50;;;;;;;14.71;100.00;93972.91;5065025;28;20036;-69
2023/07/14 02:23:19;;;;;;;2.58;2.10;;;;;;;14.72;100.00;93963.94;5065576;28;20371;-69
2023/07/14 02:25:48;;;;;;;5.10;2.70;;;;;;;14.73;100.00;93949.69;5068946;28;20132;-69
2023/07/14 02:28:14;;;;;;;2.33;2.22;;;;;;;14.73;100.00;93940.94;5064502;28;20029;-69
2023/07/14 02:30:44;;;;;;;4.43;2.20;;;;;;;14.67;100.00;93952.31;5060250;28;20059;-69
2023/07/14 02:33:15;;;;;;;2.35;2.03;;;;;;;14.57;100.00;93964.19;5063434;28;20039;-68
2023/07/14 02:35:46;;;;;;;5.65;2.03;;;;;;;14.48;100.00;93949.56;5061806;28;20038;-69
2023/07/14 02:38:14;;;;;;;6.18;2.67;;;;;;;14.42;100.00;93960.97;5069151;28;20050;-69
2023/07/14 02:40:46;;;;;;;3.13;2.20;;;;;;;14.40;100.00;93958.53;5073884;28;20021;-69
2023/07/14 02:43:16;;;;;;;2.22;1.90;;;;;;;14.35;100.00;93954.88;5064356;28;20426;-69
2023/07/14 02:45:54;;;;;;;2.33;2.10;;;;;;;14.26;100.00;93935.75;5055255;28;20021;-69
2023/07/14 02:48:25;;;;;;;3.90;2.50;;;;;;;14.26;100.00;93939.25;5067861;28;20029;-69
2023/07/14 02:50:50;;;;;;;2.80;2.60;;;;;;;14.28;100.00;93926.59;5064671;28;20016;-69
2023/07/14 02:53:17;;;;;;;3.38;2.40;;;;;;;14.21;100.00;93906.47;5059267;28;20497;-68
2023/07/14 02:55:43;;;;;;;2.75;2.20;;;;;;;14.24;100.00;93885.69;5069898;28;20583;-68
2023/07/14 02:58:08;;;;;;;2.53;2.33;;;;;;;14.27;100.00;93853.53;5072021;28;20066;-69
2023/07/14 03:00:34;;;;;;;4.30;2.17;;;;;;;14.28;100.00;93831.31;5058445;28;20027;-69
2023/07/14 03:03:01;;;;;;;3.28;2.45;;;;;;;14.23;100.00;93868.16;5065315;28;20078;-68
2023/07/14 03:05:26;;;;;;;6.47;2.65;;;;;;;14.21;100.00;93872.06;5080374;28;20622;-69
2023/07/14 03:07:51;;;;;;;2.10;2.00;;;;;;;14.27;100.00;93892.41;5055060;28;20024;-68
2023/07/14 03:10:17;;;;;;;2.45;2.35;;;;;;;14.27;100.00;93874.69;5076014;28;20025;-69
2023/07/14 03:12:42;;;;;;;2.40;2.20;;;;;;;14.23;100.00;93862.88;5065113;28;20020;-71
2023/07/14 03:15:08;;;;;;;4.38;2.38;;;;;;;14.23;100.00;93873.47;5060685;28;20055;-68
2023/07/14 03:17:36;;;;;;;8.38;2.55;;;;;;;14.20;100.00;93867.78;5073393;28;20030;-69
2023/07/14 03:20:02;;;;;;;2.60;2.28;;;;;;;14.14;100.00;93891.41;5069599;28;20027;-69
2023/07/14 03:22:30;;;;;;;3.25;2.08;;;;;;;14.08;100.00;93892.25;5074955;28;20024;-72
2023/07/14 03:25:02;;;;;;;4.07;2.70;;;;;;;14.02;100.00;93863.97;5061259;28;20024;-71
2023/07/14 03:27:28;;;;;;;2.58;2.20;;;;;;;14.00;100.00;93852.78;5067419;28;20025;-69
2023/07/14 03:29:55;;;;;;;2.85;1.85;;;;;;;13.98;100.00;93849.53;5061129;28;20500;-71
2023/07/14 03:32:21;;;;;;;3.28;2.53;;;;;;;13.97;100.00;93872.53;5077245;28;20024;-68
2023/07/14 03:34:47;;;;;;;2.70;2.50;;;;;;;13.93;100.00;93904.91;5059503;28;20107;-69
2023/07/14 03:37:12;;;;;;;3.60;2.60;;;;;;;13.90;100.00;93900.84;5064014;28;20033;-68
2023/07/14 03:39:38;;;;;;;2.97;2.28;;;;;;;13.90;100.00;93882.31;5060207;28;20768;-69
2023/07/14 03:42:04;;;;;;;2.90;2.70;;;;;;;13.89;100.00;93880.69;5054509;28;20084;-69
2023/07/14 03:44:29;;;;;;;2.92;2.50;;;;;;;13.87;100.00;93883.53;5069551;28;20158;-69
2023/07/14 03:46:54;;;;;;;2.78;2.30;;;;;;;13.84;100.00;93886.59;5064946;28;20028;-69
2023/07/14 03:49:20;;;;;;;3.13;2.53;;;;;;;13.85;100.00;93877.66;5054725;28;20127;-69
2023/07/14 03:51:46;;;;;;;2.90;2.30;;;;;;;13.85;100.00;93860.97;5062412;28;20039;-69
2023/07/14 03:54:12;;;;;;;3.67;2.60;;;;;;;13.83;100.00;93865.66;5060398;28;20033;-69
2023/07/14 03:56:37;;;;;;;3.75;2.30;;;;;;;13.86;100.00;93839.59;5068242;28;20032;-69
2023/07/14 03:59:03;;;;;;;2.80;2.30;;;;;;;13.85;100.00;93814.16;5060157;28;20029;-69
2023/07/14 04:01:28;;;;;;;3.05;2.60;;;;;;;13.86;100.00;93788.53;5066542;28;20375;-69
2023/07/14 04:03:55;;;;;;;2.33;2.13;;;;;;;13.81;100.00;93801.56;5066816;28;20031;-69
2023/07/14 04:06:21;;;;;;;2.97;2.60;;;;;;;13.72;100.00;93804.44;5085131;28;20116;-69
2023/07/14 04:08:52;;;;;;;3.45;3.15;;;;;;;13.73;100.00;93821.13;5059882;28;20028;-69
2023/07/14 04:11:17;;;;;;;3.60;2.50;;;;;;;13.77;100.00;93859.38;5069038;28;20694;-69
2023/07/14 04:13:42;;;;;;;3.08;2.10;;;;;;;13.80;100.00;93866.06;5053862;28;20103;-69
2023/07/14 04:16:08;;;;;;;2.65;2.45;;;;;;;13.77;100.00;93869.13;5064993;28;20055;-69
2023/07/14 04:18:35;;;;;;;4.30;2.45;;;;;;;13.72;100.00;93934.03;5054190;28;20044;-69
2023/07/14 04:21:02;;;;;;;4.22;2.47;;;;;;;13.73;100.00;93933.00;5063043;28;20489;-69
2023/07/14 04:23:32;;;;;;;2.40;2.25;;;;;;;13.75;100.00;93930.97;5066972;28;20039;-69
2023/07/14 04:25:58;;;;;;;2.72;2.42;;;;;;;13.73;100.00;93918.97;5066215;28;20049;-69
2023/07/14 04:28:24;;;;;;;2.45;2.22;;;;;;;13.67;100.00;93939.13;5060660;28;20025;-69
2023/07/14 04:30:54;;;;;;;4.50;2.30;;;;;;;13.60;100.00;93952.34;5058373;28;20437;-69
2023/07/14 04:33:21;;;;;;;2.75;2.30;;;;;;;13.61;100.00;93964.53;5058387;28;20088;-69
2023/07/14 04:35:47;;;;;;;2.88;2.60;;;;;;;13.67;100.00;93954.97;5056149;28;20100;-69
2023/07/14 04:38:13;;;;;;;2.38;2.17;;;;;;;13.72;100.00;93943.81;5063264;28;20036;-69
2023/07/14 04:40:41;;;;;;;2.75;2.50;;;;;;;13.65;100.00;93980.81;5056580;28;20025;-69
2023/07/14 04:43:07;;;;;;;2.70;2.50;;;;;;;13.65;100.00;93998.50;5059614;28;20069;-69
2023/07/14 04:45:41;;;;;;;2.40;2.30;;;;;;;13.64;100.00;94004.81;5060373;28;20060;-69
2023/07/14 04:48:11;;;;;;;2.25;2.15;;;;;;;13.63;100.00;94008.47;5060446;28;20029;-68
2023/07/14 04:50:36;;;;;;;3.42;2.40;;;;;;;13.67;100.00;94134.78;5061042;28;20031;-68
2023/07/14 04:53:06;;;;;;;3.40;2.58;;;;;;;13.72;100.00;94160.66;5073519;28;20036;-69
2023/07/14 04:55:41;;;;;;;2.60;2.35;;;;;;;13.74;100.00;94180.56;5061776;28;20029;-69
2023/07/14 04:58:08;;;;;;;3.55;2.67;;;;;;;13.76;100.00;94185.69;5075529;28;20024;-69
2023/07/14 05:00:34;;;;;;;2.75;2.55;;;;;;;13.79;100.00;94192.38;5059636;28;20511;-69
2023/07/14 05:03:00;;;;;;;2.83;2.50;;;;;;;13.80;100.00;94184.25;5062508;28;20063;-70
2023/07/14 05:05:26;;;;;;;2.85;2.65;;;;;;;13.82;100.00;94154.97;5078010;28;20056;-69
2023/07/14 05:07:52;;;;;;;3.30;2.67;;;;;;;13.89;100.00;94130.16;5058889;28;20032;-70
2023/07/14 05:10:20;;;;;;;3.97;2.70;;;;;;;13.95;100.00;94120.59;5057363;28;20021;-69
2023/07/14 05:12:49;;;;;;;2.47;2.28;;;;;;;13.84;100.00;94137.88;5057730;28;20040;-69
2023/07/14 05:15:15;;;;;;;3.33;2.88;;;;;;;13.84;100.00;94150.31;5070312;28;20029;-70
2023/07/14 05:17:43;;;;;;;2.63;2.42;;;;;;;13.88;100.00;94260.78;5067644;28;20113;-69
2023/07/14 05:20:12;;;;;;;3.00;2.80;;;;;;;13.98;100.00;94283.44;5058832;28;20029;-69
2023/07/14 05:22:39;;;;;;;2.92;2.70;;;;;;;14.12;100.00;94290.38;5076064;28;20032;-70
2023/07/14 05:25:05;;;;;;;4.35;2.30;;;;;;;14.22;100.00;94274.13;5075810;28;20096;-69
2023/07/14 05:27:31;;;;;;;6.97;2.83;;;;;;;14.28;100.00;94278.66;5076902;28;20032;-70
2023/07/14 05:29:57;;;;;;;5.18;4.60;;;;;;;14.34;100.00;94242.59;5058672;28;20826;-69
2023/07/14 05:32:24;;;;;;;3.28;3.00;;;;;;;14.41;100.00;94219.63;5080750;28;20090;-69
2023/07/14 05:34:49;;;;;;;4.35;2.70;;;;;;;14.54;100.00;94212.69;5058801;28;20060;-69
2023/07/14 05:37:16;;;;;;;2.75;2.50;;;;;;;14.69;100.00;94172.75;5063490;28;20036;-70
2023/07/14 05:39:42;;;;;;;2.80;2.42;;;;;;;14.84;100.00;94154.84;5056842;28;20025;-69
2023/07/14 05:42:08;;;;;;;2.63;2.50;;;;;;;14.99;100.00;94133.41;5056680;28;20033;-69
2023/07/14 05:44:33;;;;;;;2.60;2.47;;;;;;;15.21;100.00;94105.84;5073225;28;20027;-69
2023/07/14 05:46:59;;;;;;;3.42;2.60;;;;;;;15.36;100.00;94116.19;5076191;28;20055;-69
2023/07/14 05:49:24;;;;;;;2.88;2.47;;;;;;;15.43;100.00;94125.75;5059271;28;20032;-69
2023/07/14 05:51:53;;;;;;;3.92;2.47;;;;;;;15.55;100.00;94103.84;5060219;28;20122;-69
2023/07/14 05:54:20;;;;;;;2.58;2.38;;;;;;;15.69;100.00;94093.97;5056792;28;20499;-70
2023/07/14 05:56:46;;;;;;;5.55;2.60;;;;;;;15.81;100.00;94073.69;5059546;28;20028;-70
2023/07/14 05:59:12;;;;;;;3.42;2.58;;;;;;;15.88;100.00;94068.34;5057542;28;20029;-70
2023/07/14 06:01:38;;;;;;;2.42;2.05;;;;;;;15.97;100.00;94053.81;5059226;28;20039;-70
2023/07/14 06:04:05;;;;;;;2.72;2.53;;;;;;;16.13;100.00;94044.50;5059842;28;20032;-70
2023/07/14 06:06:31;;;;;;;2.42;2.30;;;;;;;16.24;100.00;94048.28;5068573;28;20034;-70
2023/07/14 06:08:57;;;;;;;1.95;1.85;;;;;;;16.42;100.00;94058.16;5059756;28;20116;-70
2023/07/14 06:11:23;;;;;;;3.35;2.40;;;;;;;16.62;100.00;94067.78;5062409;28;20060;-70
2023/07/14 06:13:48;;;;;;;3.38;2.45;;;;;;;16.78;100.00;94082.34;5056598;28;20028;-70
2023/07/14 06:16:13;;;;;;;5.25;2.40;;;;;;;16.96;100.00;94091.38;5064143;28;20029;-70
2023/07/14 06:18:39;;;;;;;2.85;2.20;;;;;;;17.10;100.00;94090.19;5056218;28;20021;-70
2023/07/14 06:21:04;;;;;;;2.65;2.22;;;;;;;17.25;100.00;94086.34;5060261;28;20025;-70
2023/07/14 06:23:30;;;;;;;2.53;2.33;;;;;;;17.43;100.00;94093.50;5068060;28;20017;-70
2023/07/14 06:25:58;;;;;;;4.72;2.13;;;;;;;17.54;100.00;94106.06;5061398;28;20041;-70
2023/07/14 06:28:24;;;;;;;2.42;2.22;;;;;;;17.66;100.00;94106.09;5056314;28;20025;-71
2023/07/14 06:31:00;;;;;;;2.35;2.08;;;;;;;17.76;100.00;94114.34;5067395;28;20016;-71
2023/07/14 06:33:26;;;;;;;2.20;2.00;;;;;;;17.82;100.00;94127.81;5073825;28;20286;-71
2023/07/14 06:35:55;;;;;;;2.20;2.00;;;;;;;17.77;100.00;94144.44;5074666;28;20023;-70
2023/07/14 06:38:21;;;;;;;2.20;2.10;;;;;;;17.85;100.00;94156.63;5060281;28;20017;-70
2023/07/14 06:40:47;;;;;;;2.08;1.98;;;;;;;17.97;100.00;94154.03;5063527;28;20533;-71
2023/07/14 06:43:12;;;;;;;3.13;2.00;;;;;;;18.03;100.00;94161.13;5067637;28;20075;-71
2023/07/14 06:45:38;;;;;;;2.50;2.30;;;;;;;18.23;100.00;94165.38;5069529;28;20130;-70
2023/07/14 06:48:03;;;;;;;4.55;2.05;;;;;;;18.55;100.00;94167.75;5070035;28;20028;-70
2023/07/14 06:50:29;;;;;;;2.40;1.90;;;;;;;18.60;100.00;94165.22;5094422;28;20024;-70
2023/07/14 06:52:55;;;;;;;2.38;2.10;;;;;;;18.78;100.00;94153.66;5081044;28;20463;-71
2023/07/14 06:55:20;;;;;;;3.22;2.00;;;;;;;18.94;100.00;94144.13;5075439;28;20030;-72
2023/07/14 06:57:46;;;;;;;1.95;1.85;;;;;;;19.18;100.00;94122.81;5067132;28;20028;-71
2023/07/14 07:00:12;;;;;;;4.25;2.10;;;;;;;19.41;100.00;94111.31;5075852;28;20031;-68
2023/07/14 07:02:41;;;;;;;1.95;1.85;;;;;;;19.57;100.00;94122.28;5085953;28;20025;-71
2023/07/14 07:05:07;;;;;;;3.95;1.90;;;;;;;19.65;100.00;94137.91;5080236;28;20545;-69
2023/07/14 07:07:34;;;;;;;2.65;1.98;;;;;;;19.90;100.00;94121.59;5070253;28;20107;-71
2023/07/14 07:09:59;;;;;;;3.42;1.90;;;;;;;20.24;100.00;94106.69;5080011;28;20027;-71
2023/07/14 07:12:25;;;;;;;1.70;1.60;;;;;;;20.44;100.00;94080.31;5063682;28;20021;-71
2023/07/14 07:14:50;;;;;;;2.35;1.80;;;;;;;20.77;100.00;94085.88;5063181;28;20033;-71
2023/07/14 07:17:16;;;;;;;4.78;2.13;;;;;;;21.26;100.00;94052.28;5075596;28;20036;-71
2023/07/14 07:19:41;;;;;;;1.95;1.80;;;;;;;21.83;100.00;94026.19;5071929;28;20024;-71
2023/07/14 07:22:07;;;;;;;3.00;1.75;;;;;;;22.21;100.00;94000.22;5098217;28;20024;-71
2023/07/14 07:24:33;;;;;;;1.80;1.70;;;;;;;22.27;100.00;94017.97;5074100;28;20444;-72
2023/07/14 07:26:59;;;;;;;2.58;1.52;;;;;;;22.41;100.00;94025.56;5074290;28;20036;-71
2023/07/14 07:29:24;;;;;;;3.30;1.80;;;;;;;22.00;100.00;94076.97;5076457;28;20016;-71
2023/07/14 07:31:50;;;;;;;2.60;1.85;;;;;;;21.42;100.00;94118.34;5070993;28;20021;-70
2023/07/14 07:34:15;;;;;;;1.83;1.73;;;;;;;21.30;100.00;94117.63;5076725;28;20028;-72
2023/07/14 07:36:42;;;;;;;3.13;1.63;;;;;;;21.96;100.00;94084.69;5072583;28;20017;-72
2023/07/14 07:39:07;;;;;;;1.70;1.60;;;;;;;22.16;100.00;94081.41;5086250;28;20050;-71
2023/07/14 07:41:32;;;;;;;3.22;2.75;;;;;;;21.72;100.00;94168.00;5086420;28;20031;-71
2023/07/14 07:43:58;;;;;;;2.45;2.08;;;;;;;21.82;100.00;94147.75;5076198;28;20024;-71
2023/07/14 07:46:27;;;;;;;3.75;2.95;;;;;;;22.32;100.00;94122.53;5075392;28;20101;-71
2023/07/14 07:48:53;;;;;;;1.88;1.73;;;;;;;22.69;100.00;94110.28;5076943;28;20066;-69
2023/07/14 07:51:19;;;;;;;1.70;1.60;;;;;;;22.92;100.00;94110.16;5070713;28;20049;-69
2023/07/14 07:53:44;;;;;;;2.35;2.15;;;;;;;23.42;100.00;94084.69;5056128;28;20085;-69
2023/07/14 07:56:10;;;;;;;3.03;1.80;;;;;;;23.79;100.00;94104.44;5080323;28;20030;-69
2023/07/14 07:58:36;;;;;;;3.10;1.67;;;;;;;24.11;100.00;94087.34;5063705;28;20025;-69
2023/07/14 08:01:06;;;;;;;3.63;1.80;;;;;;;24.49;100.00;94087.09;5070143;28;20028;-69
2023/07/14 08:03:34;;;;;;;1.50;1.40;;;;;;;24.56;100.00;94101.06;5063763;28;20025;-70
2023/07/14 08:06:05;;;;;;;4.65;1.67;;;;;;;24.56;100.00;94065.31;5076771;28;20028;-69
2023/07/14 08:08:31;;;;;;;3.70;1.60;;;;;;;24.75;100.00;94077.13;5068104;28;20024;-69
2023/07/14 08:10:57;;;;;;;1.90;1.80;;;;;;;25.22;100.00;94092.41;5070390;28;20139;-69
2023/07/14 08:13:25;;;;;;;3.80;1.67;;;;;;;25.26;100.00;94155.41;5058660;28;20029;-72
2023/07/14 08:15:53;;;;;;;5.18;1.80;;;;;;;24.88;100.00;94151.16;5062095;28;20078;-70
2023/07/14 08:18:20;;;;;;;1.88;1.60;;;;;;;25.28;100.00;94121.75;5065555;28;20107;-70
2023/07/14 08:20:48;;;;;;;1.63;1.52;;;;;;;25.60;100.00;94103.63;5072274;28;20224;-70
2023/07/14 08:23:14;;;;;;;2.40;1.38;;;;;;;25.56;100.00;94083.72;5079024;28;20044;-70
2023/07/14 08:25:40;;;;;;;2.03;1.90;;;;;;;25.84;100.00;94036.41;5082673;28;20039;-70
2023/07/14 08:28:06;;;;;;;2.38;1.70;;;;;;;25.89;100.00;94078.69;5072640;28;20048;-70
2023/07/14 08:30:31;;;;;;;3.00;1.95;;;;;;;26.19;100.00;94031.06;5073306;28;20043;-70
2023/07/14 08:32:57;;;;;;;2.05;1.70;;;;;;;26.07;100.00;94036.00;5076932;28;20053;-70
2023/07/14 08:35:23;;;;;;;1.70;1.60;;;;;;;25.77;100.00;93998.19;5085331;28;20016;-70
2023/07/14 08:37:49;;;;;;;4.32;1.70;;;;;;;26.08;100.00;93991.78;5080776;28;20028;-70
2023/07/14 08:40:20;;;;;;;2.30;1.52;;;;;;;26.53;100.00;94027.56;5070376;28;20043;-70
2023/07/14 08:43:20;;;;;;;1.85;1.70;;;;;;;26.26;100.00;94066.63;5065735;28;20029;-68
2023/07/14 08:46:42;;;;;;;2.88;1.88;;;;;;;26.09;100.00;94045.44;5064600;28;20032;-69
2023/07/14 08:49:09;;;;;;;1.52;1.42;;;;;;;25.95;100.00;94017.47;5035304;28;20057;-69
2023/07/14 08:51:45;;;;;;;2.10;1.70;;;;;;;26.23;100.00;94032.13;5032934;28;20045;-70
2023/07/14 08:54:20;;;;;;;3.28;1.67;;;;;;;26.29;100.00;94040.97;5053336;28;20079;-69
2023/07/14 08:56:46;;;;;;;2.20;1.60;;;;;;;26.53;100.00;94035.66;5075397;28;20017;-69
2023/07/14 08:59:25;;;;;;;1.60;1.50;;;;;;;26.50;100.00;94022.75;5074346;28;20076;-69
2023/07/14 09:01:53;;;;;;;3.17;1.52;;;;;;;27.38;100.00;94037.25;5071690;28;20025;-69
2023/07/14 09:04:23;;;;;;;2.58;1.63;;;;;;;27.35;100.00;94081.03;5078568;28;20051;-69
2023/07/14 09:06:49;;;;;;;2.80;1.77;;;;;;;27.44;100.00;94039.59;5085461;28;20020;-69
2023/07/14 09:09:27;;;;;;;2.13;1.40;;;;;;;27.24;100.00;94050.63;5080092;28;20557;-69
2023/07/14 09:12:09;;;;;;;2.40;1.55;;;;;;;27.74;100.00;94002.50;5074135;28;20025;-69
2023/07/14 09:14:54;;;;;;;3.40;1.90;;;;;;;27.82;100.00;93992.91;5065735;28;20052;-70
2023/07/14 09:17:36;;;;;;;1.92;1.73;;;;;;;27.64;100.00;94148.56;5068008;28;20047;-70
2023/07/14 09:20:36;;;;;;;1.80;1.70;;;;;;;27.54;100.00;94119.75;5073241;28;20028;-71
2023/07/14 09:23:13;;;;;;;1.70;1.60;;;;;;;27.57;100.00;94197.56;5075471;28;20032;-72
2023/07/14 09:26:11;;;;;;;2.75;1.70;;;;;;;27.14;100.00;94227.09;5071224;28;20690;-71
2023/07/14 09:28:43;;;;;;;4.85;1.50;;;;;;;26.66;100.00;94127.84;5071530;28;20029;-71
2023/07/14 09:31:44;;;;;;;3.42;1.70;;;;;;;26.78;100.00;94103.19;5062338;28;20237;-69
2023/07/14 09:34:20;;;;;;;2.10;1.90;;;;;;;27.02;100.00;94155.38;5063576;28;20043;-71
2023/07/14 09:36:46;;;;;;;3.95;1.70;;;;;;;27.09;100.00;94101.06;5079018;28;20029;-73
2023/07/14 09:39:22;;;;;;;2.05;1.85;;;;;;;27.19;100.00;94104.72;5083700;28;20024;-69
2023/07/14 09:41:52;;;;;;;3.20;1.48;;;;;;;27.28;100.00;94194.84;5069332;28;20034;-71
2023/07/14 09:44:19;;;;;;;3.20;1.85;;;;;;;27.41;100.00;94233.88;5065997;28;20030;-71
2023/07/14 09:46:48;;;;;;;1.98;1.60;;;;;;;27.28;100.00;94189.44;5083044;28;20016;-70
2023/07/14 09:49:38;;;;;;;1.80;1.70;;;;;;;27.48;100.00;94171.41;5063783;28;20493;-70
2023/07/14 09:52:25;;;;;;;2.42;1.60;;;;;;;27.65;100.00;94128.56;5077217;28;20028;-70
2023/07/14 09:54:59;;;;;;;1.85;1.60;;;;;;;27.71;100.00;94250.94;5066600;28;20090;-70
2023/07/14 09:57:27;;;;;;;2.67;1.92;;;;;;;28.18;100.00;94226.91;5074047;28;20017;-70
2023/07/14 10:00:11;;;;;;;1.70;1.60;;;;;;;28.17;100.00;94236.94;5081553;28;20135;-70
2023/07/14 10:02:36;;;;;;;1.60;1.50;;;;;;;27.76;100.00;94274.44;5073119;28;20396;-70
2023/07/14 10:05:21;;;;;;;2.25;2.03;;;;;;;27.98;100.00;94222.53;5077753;28;20028;-70
2023/07/14 10:07:47;;;;;;;2.75;1.63;;;;;;;27.94;100.00;94259.34;5070128;28;20060;-69
2023/07/14 10:10:14;;;;;;;1.95;1.60;;;;;;;27.91;100.00;94222.88;5074584;28;20221;-69
2023/07/14 10:12:46;;;;;;;1.88;1.77;;;;;;;28.12;100.00;94196.41;5072819;28;20032;-69
2023/07/14 10:15:30;;;;;;;3.25;1.40;;;;;;;28.66;100.00;94284.78;5078947;28;20071;-69
2023/07/14 10:18:04;;;;;;;1.67;1.58;;;;;;;28.58;100.00;94322.22;5069597;28;20032;-69
2023/07/14 10:20:31;;;;;;;3.23;1.60;;;;;;;28.85;100.00;94293.75;5075979;28;20163;-69
2023/07/14 10:22:59;;;;;;;1.55;1.45;;;;;;;28.93;100.00;94288.78;5083181;28;20635;-69
2023/07/14 10:25:26;;;;;;;1.95;1.60;;;;;;;28.96;100.00;94299.00;5074645;28;20096;-71
2023/07/14 10:27:54;;;;;;;2.22;1.70;;;;;;;29.28;100.00;94249.50;5067780;28;20029;-69
2023/07/14 10:30:46;;;;;;;1.73;1.63;;;;;;;28.91;100.00;94275.50;5061660;28;20032;-70
2023/07/14 10:33:42;;;;;;;1.92;1.63;;;;;;;28.95;100.00;94254.06;5076369;28;20115;-69
2023/07/14 10:36:22;;;;;;;2.03;1.70;;;;;;;28.97;100.00;94295.22;5076687;28;20071;-69
2023/07/14 10:38:52;;;;;;;5.45;1.85;;;;;;;28.63;100.00;94258.28;5072168;28;20024;-69
2023/07/14 10:41:22;;;;;;;3.47;1.80;;;;;;;28.81;100.00;94298.13;5058994;28;20025;-70
2023/07/14 10:44:01;;;;;;;1.92;1.65;;;;;;;28.98;100.00;94315.78;5070728;28;20030;-69
2023/07/14 10:46:42;;;;;;;2.10;1.92;;;;;;;28.62;100.00;94306.22;5069656;28;20009;-70
2023/07/14 10:49:32;;;;;;;1.95;1.70;;;;;;;28.78;100.00;94325.75;5059365;28;20052;-70
2023/07/14 10:52:11;;;;;;;2.45;2.25;;;;;;;28.76;100.00;94278.44;5054473;28;20021;-70
2023/07/14 10:54:43;;;;;;;2.00;1.90;;;;;;;28.74;100.00;94274.13;5060436;28;20032;-69
2023/07/14 10:57:26;;;;;;;4.15;2.00;;;;;;;28.73;100.00;94236.50;5059627;28;20044;-68
2023/07/14 10:59:58;;;;;;;2.40;1.80;;;;;;;28.84;100.00;94259.63;5055640;28;20025;-69
2023/07/14 11:02:41;;;;;;;3.45;1.63;;;;;;;28.66;100.00;94282.06;5059268;28;20023;-69
2023/07/14 11:05:15;;;;;;;1.70;1.60;;;;;;;29.19;100.00;94144.81;5075762;28;20032;-70
2023/07/14 11:07:40;;;;;;;1.73;1.45;;;;;;;29.69;100.00;94304.94;5059143;28;20017;-70
2023/07/14 11:10:29;;;;;;;3.10;1.77;;;;;;;29.63;100.00;94294.50;5054701;28;20035;-69
2023/07/14 11:13:29;;;;;;;2.03;1.65;;;;;;;29.85;100.00;94253.16;5054765;28;20029;-68
2023/07/14 11:16:01;;;;;;;2.00;1.65;;;;;;;29.85;100.00;94218.72;5054990;28;20052;-68
2023/07/14 11:18:32;;;;;;;4.10;1.80;;;;;;;30.30;100.00;94280.53;5068652;28;20021;-68
2023/07/14 11:21:20;;;;;;;3.20;1.88;;;;;;;30.42;100.00;94315.31;5055318;28;20583;-68
2023/07/14 11:24:00;;;;;;;1.55;1.45;;;;;;;30.24;100.00;94325.16;5054751;28;20497;-68
2023/07/14 11:26:43;;;;;;;1.60;1.50;;;;;;;30.15;100.00;94307.97;5057582;28;20229;-70
2023/07/14 11:29:19;;;;;;;1.55;1.48;;;;;;;30.20;100.00;94307.88;5063075;28;20103;-72
2023/07/14 11:31:52;;;;;;;2.78;1.95;;;;;;;30.38;100.00;94200.31;5062571;28;20024;-71
2023/07/14 11:34:32;;;;;;;1.73;1.63;;;;;;;30.58;100.00;94269.63;5072315;28;20020;-71
2023/07/14 11:37:35;;;;;;;4.63;1.60;;;;;;;30.28;100.00;94281.94;5054803;28;20519;-71